createdAt,value
2022-10-22T00:00:45.558Z,100219.56
2022-10-22T00:03:47.527Z,100217.59
2022-10-22T00:06:49.400Z,100221.00
2022-10-22T00:09:51.511Z,100224.34
2022-10-22T00:12:53.454Z,100217.44
2022-10-22T00:15:55.191Z,100215.91
2022-10-22T00:18:58.105Z,100224.06
2022-10-22T00:22:00.119Z,100221.50
2022-10-22T00:25:01.980Z,100212.66
2022-10-22T00:28:04.129Z,100211.63
2022-10-22T00:31:06.754Z,100215.91
2022-10-22T00:34:08.664Z,100204.50
2022-10-22T00:37:10.487Z,100194.63
2022-10-22T00:40:12.845Z,100205.84
2022-10-22T00:43:17.302Z,100208.56
2022-10-22T00:46:19.057Z,100211.13
2022-10-22T00:49:20.927Z,100205.84
2022-10-22T00:52:23.017Z,100200.50
2022-10-22T00:55:27.367Z,100200.31
2022-10-22T00:58:33.680Z,100199.38
2022-10-22T01:01:35.447Z,100199.38
2022-10-22T01:04:37.433Z,100201.19
2022-10-22T01:07:53.071Z,100200.31
2022-10-22T01:10:59.080Z,100190.69
2022-10-22T01:14:29.618Z,100196.56
2022-10-22T01:17:46.531Z,100192.91
2022-10-22T01:21:22.445Z,100188.41
2022-10-22T01:24:42.495Z,100193.41
2022-10-22T01:27:47.109Z,100194.28
2022-10-22T01:30:53.344Z,100199.22
2022-10-22T01:33:55.536Z,100193.75
2022-10-22T01:36:59.074Z,100196.06
2022-10-22T01:40:02.466Z,100206.34
2022-10-22T01:43:07.875Z,100198.34
2022-10-22T01:46:11.583Z,100200.97
2022-10-22T01:49:27.868Z,100206.75
2022-10-22T01:52:48.376Z,100201.22
2022-10-22T01:56:11.756Z,100208.88
2022-10-22T01:59:46.081Z,100202.47
2022-10-22T02:03:18.614Z,100201.38
2022-10-22T02:06:25.399Z,100207.41
2022-10-22T02:09:30.222Z,100203.66
2022-10-22T02:12:33.823Z,100209.78
2022-10-22T02:15:38.475Z,100210.63
2022-10-22T02:18:43.844Z,100210.72
2022-10-22T02:21:46.008Z,100212.34
2022-10-22T02:24:49.260Z,100206.13
2022-10-22T02:28:09.074Z,100209.53
2022-10-22T02:31:19.129Z,100208.50
2022-10-22T02:34:26.118Z,100209.06
2022-10-22T02:37:28.657Z,100203.50
2022-10-22T02:40:31.434Z,100199.94
2022-10-22T02:43:42.994Z,100203.16
2022-10-22T02:46:44.847Z,100195.03
2022-10-22T02:49:46.878Z,100192.31
2022-10-22T02:52:48.907Z,100193.91
2022-10-22T02:55:50.728Z,100199.88
2022-10-22T02:58:52.470Z,100200.53
2022-10-22T03:01:54.233Z,100198.56
2022-10-22T03:04:56.014Z,100196.88
2022-10-22T03:07:57.854Z,100201.13
2022-10-22T03:10:59.700Z,100193.75
2022-10-22T03:14:01.588Z,100193.56
2022-10-22T03:17:03.648Z,100194.25
2022-10-22T03:20:05.921Z,100182.91
2022-10-22T03:23:09.896Z,100195.19
2022-10-22T03:26:14.488Z,100199.44
2022-10-22T03:29:16.768Z,100194.72
2022-10-22T03:32:19.030Z,100188.31
2022-10-22T03:35:20.993Z,100196.22
2022-10-22T03:38:23.000Z,100199.72
2022-10-22T03:41:24.795Z,100200.41
2022-10-22T03:44:27.708Z,100185.28
2022-10-22T03:47:29.522Z,100188.78
2022-10-22T03:50:31.289Z,100194.06
2022-10-22T03:53:33.236Z,100187.66
2022-10-22T03:56:35.161Z,100192.84
2022-10-22T03:59:44.974Z,100188.13
2022-10-22T04:02:46.792Z,100183.59
2022-10-22T04:05:48.596Z,100187.06
2022-10-22T04:08:50.465Z,100172.91
2022-10-22T04:11:52.310Z,100178.19
2022-10-22T04:14:54.066Z,100184.63
2022-10-22T04:17:56.275Z,100183.47
2022-10-22T04:20:58.017Z,100181.50
2022-10-22T04:23:59.864Z,100193.50
2022-10-22T04:27:01.660Z,100197.84
2022-10-22T04:30:05.037Z,100195.66
2022-10-22T04:33:06.869Z,100198.78
2022-10-22T04:36:14.638Z,100200.19
2022-10-22T04:39:16.494Z,100203.50
2022-10-22T04:42:18.898Z,100205.00
2022-10-22T04:45:20.721Z,100200.28
2022-10-22T04:48:22.465Z,100199.03
2022-10-22T04:51:26.029Z,100198.75
2022-10-22T04:54:32.048Z,100205.53
2022-10-22T04:57:35.095Z,100192.00
2022-10-22T05:00:36.917Z,100199.84
2022-10-22T05:03:38.865Z,100198.81
2022-10-22T05:06:41.030Z,100200.09
2022-10-22T05:09:42.812Z,100194.50
2022-10-22T05:12:44.533Z,100195.91
2022-10-22T05:15:49.313Z,100191.06
2022-10-22T05:18:51.252Z,100198.81
2022-10-22T05:21:54.852Z,100199.47
2022-10-22T05:24:56.641Z,100197.34
2022-10-22T05:28:00.285Z,100193.25
2022-10-22T05:31:03.004Z,100204.31
2022-10-22T05:34:04.764Z,100194.13
2022-10-22T05:37:06.581Z,100199.88
2022-10-22T05:40:19.344Z,100204.66
2022-10-22T05:43:29.078Z,100210.50
2022-10-22T05:46:35.329Z,100206.28
2022-10-22T05:49:37.139Z,100206.72
2022-10-22T05:52:39.294Z,100200.16
2022-10-22T05:55:41.468Z,100206.63
2022-10-22T05:58:44.343Z,100207.47
2022-10-22T06:01:46.259Z,100210.78
2022-10-22T06:04:48.106Z,100207.56
2022-10-22T06:07:49.912Z,100209.88
2022-10-22T06:10:51.849Z,100220.81
2022-10-22T06:13:53.662Z,100226.09
2022-10-22T06:16:55.565Z,100227.06
2022-10-22T06:19:57.350Z,100216.53
2022-10-22T06:22:59.225Z,100224.34
2022-10-22T06:26:01.739Z,100216.66
2022-10-22T06:29:04.181Z,100213.28
2022-10-22T06:32:06.209Z,100210.84
2022-10-22T06:35:08.257Z,100201.47
2022-10-22T06:38:10.121Z,100211.06
2022-10-22T06:41:14.715Z,100211.19
2022-10-22T06:44:18.646Z,100210.94
2022-10-22T06:47:20.520Z,100214.47
2022-10-22T06:50:22.501Z,100211.78
2022-10-22T14:48:16.267Z,99873.16
2022-10-22T14:51:20.035Z,99870.03
2022-10-22T14:54:22.036Z,99871.56
2022-10-22T14:57:23.907Z,99866.22
2022-10-22T15:00:25.919Z,99859.88
2022-10-22T15:03:27.913Z,99861.84
2022-10-22T15:06:29.747Z,99876.09
2022-10-22T15:09:31.762Z,99870.72
2022-10-22T15:12:33.889Z,99877.78
2022-10-22T15:15:39.577Z,99871.72
2022-10-22T15:18:42.789Z,99879.91
2022-10-22T15:21:44.662Z,99878.91
2022-10-22T15:24:48.574Z,99880.91
2022-10-22T15:27:51.824Z,99874.00
2022-10-22T15:31:00.581Z,99880.19
2022-10-22T15:34:02.439Z,99875.84
2022-10-22T15:37:07.229Z,99874.31
2022-10-22T15:40:09.346Z,99877.13
2022-10-22T15:43:11.701Z,99868.53
2022-10-22T15:46:16.456Z,99865.03
2022-10-22T15:49:18.868Z,99864.72
2022-10-22T15:52:23.748Z,99865.88
2022-10-22T15:55:25.847Z,99872.06
2022-10-22T15:58:28.721Z,99870.94
2022-10-22T16:01:33.109Z,99878.13
2022-10-22T16:04:35.047Z,99877.41
2022-10-22T16:07:37.003Z,99886.28
2022-10-22T16:10:44.764Z,99887.28
2022-10-22T16:13:46.707Z,99884.59
2022-10-22T16:16:51.222Z,99878.25
2022-10-22T16:19:53.610Z,99877.72
2022-10-22T16:22:55.525Z,99879.25
2022-10-22T16:25:57.386Z,99872.22
2022-10-22T16:28:59.395Z,99867.16
2022-10-22T16:32:01.306Z,99871.81
2022-10-22T16:35:03.218Z,99870.81
2022-10-22T16:38:05.117Z,99864.91
2022-10-22T16:41:21.513Z,99866.91
2022-10-22T16:44:23.841Z,99865.22
2022-10-22T16:47:25.838Z,99855.09
2022-10-22T16:50:27.941Z,99852.44
2022-10-22T16:53:29.830Z,99863.13
2022-10-22T16:56:31.870Z,99861.44
2022-10-22T16:59:33.754Z,99857.91
2022-10-22T17:02:37.507Z,99864.13
2022-10-22T17:05:39.375Z,99859.91
2022-10-22T17:08:43.135Z,99869.63
2022-10-22T17:11:45.112Z,99856.94
2022-10-22T17:14:48.034Z,99855.09
2022-10-22T17:17:53.748Z,99848.34
2022-10-22T17:20:56.370Z,99843.00
2022-10-22T17:23:59.524Z,99840.19
2022-10-22T17:27:01.417Z,99835.13
2022-10-22T17:30:05.017Z,99832.44
2022-10-22T17:33:08.695Z,99830.63
2022-10-22T17:36:15.271Z,99829.94
2022-10-22T17:39:19.158Z,99822.44
2022-10-22T17:42:21.712Z,99821.44
2022-10-22T17:45:24.566Z,99821.06
2022-10-22T17:48:27.858Z,99818.38
2022-10-22T17:51:31.360Z,99823.44
2022-10-22T17:54:35.483Z,99812.72
2022-10-22T17:57:37.413Z,99810.75
2022-10-22T18:00:39.818Z,99806.53
2022-10-22T18:03:42.605Z,99801.03
2022-10-22T18:06:47.086Z,99780.47
2022-10-22T18:09:50.964Z,99775.56
2022-10-22T18:12:52.921Z,99770.53
2022-10-22T18:15:56.967Z,99767.16
2022-10-22T18:18:58.865Z,99769.28
2022-10-22T18:22:04.528Z,99766.47
2022-10-22T18:25:06.727Z,99767.16
2022-10-22T18:28:13.746Z,99768.13
2022-10-22T18:31:21.997Z,99767.00
2022-10-22T18:34:24.143Z,99770.66
2022-10-22T18:37:26.117Z,99779.13
2022-10-22T18:40:33.068Z,99787.84
2022-10-22T18:43:38.718Z,99798.41
2022-10-22T18:46:41.113Z,99798.25
2022-10-22T18:49:44.391Z,99801.78
2022-10-22T18:52:46.389Z,99789.25
2022-10-22T18:55:48.290Z,99794.44
2022-10-22T19:02:00.739Z,99784.28
2022-10-22T19:06:07.575Z,99776.13
2022-10-22T19:09:28.917Z,99779.94
2022-10-22T19:12:30.683Z,99778.94
2022-10-22T19:15:32.739Z,99776.56
2022-10-22T19:18:36.797Z,99775.28
2022-10-22T19:21:41.474Z,99773.59
2022-10-22T19:24:45.886Z,99767.41
2022-10-22T19:27:48.850Z,99765.72
2022-10-22T19:30:50.582Z,99759.28
2022-10-22T19:33:56.854Z,99764.47
2022-10-22T19:36:58.677Z,99760.41
2022-10-22T19:40:00.684Z,99754.38
2022-10-22T19:43:02.477Z,99762.25
2022-10-22T19:46:05.464Z,99755.75
2022-10-22T19:49:07.280Z,99752.53
2022-10-22T19:52:09.434Z,99765.75
2022-10-22T19:55:11.492Z,99769.03
2022-10-22T19:58:15.605Z,99753.97
2022-10-22T20:01:19.105Z,99768.72
2022-10-22T20:04:25.201Z,99753.38
2022-10-22T20:07:29.115Z,99751.59
2022-10-22T20:10:32.309Z,99758.19
2022-10-22T20:16:44.785Z,99753.69
2022-10-22T20:19:46.579Z,99747.72
2022-10-22T20:22:48.297Z,99743.66
2022-10-22T20:25:50.187Z,99740.31
2022-10-22T20:28:52.258Z,99750.00
2022-10-22T20:31:54.093Z,99755.50
2022-10-22T20:34:55.894Z,99748.31
2022-10-22T20:37:57.633Z,99746.09
2022-10-22T20:41:00.605Z,99745.50
2022-10-22T20:44:02.299Z,99744.97
2022-10-22T20:47:04.198Z,99738.31
2022-10-22T20:50:12.055Z,99741.00
2022-10-22T20:53:16.889Z,99745.06
2022-10-22T20:56:19.852Z,99742.38
2022-10-22T20:59:21.588Z,99743.06
2022-10-22T21:02:24.113Z,99741.38
2022-10-22T21:05:26.078Z,99731.84
2022-10-22T21:08:27.895Z,99731.69
2022-10-22T21:11:29.658Z,99723.50
2022-10-22T21:14:31.607Z,99725.19
2022-10-22T21:17:33.336Z,99722.97
2022-10-22T21:20:35.384Z,99719.84
2022-10-22T21:23:37.986Z,99720.00
2022-10-22T21:26:43.349Z,99715.47
2022-10-22T21:29:45.143Z,99702.81
2022-10-22T21:32:46.886Z,99701.81
2022-10-22T21:35:51.285Z,99688.03
2022-10-22T21:38:56.877Z,99689.72
2022-10-22T21:41:58.778Z,99686.22
2022-10-22T21:45:00.675Z,99679.31
2022-10-22T21:48:02.541Z,99672.97
2022-10-22T21:51:11.986Z,99677.34
2022-10-22T21:54:13.808Z,99671.31
2022-10-22T21:57:15.668Z,99668.63
2022-10-22T22:00:22.034Z,99663.28
2022-10-22T22:03:24.799Z,99659.22
2022-10-22T22:06:32.019Z,99652.03
2022-10-22T22:09:35.065Z,99661.75
2022-10-22T22:12:36.891Z,99648.38
2022-10-22T22:15:38.703Z,99648.38
2022-10-22T22:18:41.901Z,99643.03
2022-10-22T22:21:43.750Z,99645.31
2022-10-22T22:24:45.492Z,99646.84
2022-10-22T22:27:47.285Z,99644.16
2022-10-22T22:30:49.128Z,99637.13
2022-10-22T22:33:52.058Z,99632.25
2022-10-22T22:36:53.732Z,99631.00
2022-10-22T22:39:55.526Z,99626.34
2022-10-22T22:42:57.304Z,99627.34
2022-10-22T22:46:04.145Z,99622.97
2022-10-22T22:49:06.471Z,99624.13
2022-10-22T22:52:09.364Z,99617.09
2022-10-22T22:55:10.995Z,99612.75
2022-10-22T22:58:12.787Z,99615.41
2022-10-22T23:01:33.147Z,99606.56
2022-10-22T23:04:35.033Z,99594.47
2022-10-22T23:07:36.882Z,99596.31
2022-10-22T23:10:38.870Z,99605.63
2022-10-22T23:13:42.330Z,99592.16
2022-10-22T23:16:47.085Z,99588.66
2022-10-22T23:19:48.880Z,99582.91
2022-10-22T23:22:50.650Z,99582.75
2022-10-22T23:25:55.858Z,99577.41
2022-10-22T23:29:20.746Z,99573.75
2022-10-22T23:32:22.519Z,99572.06
2022-10-22T23:35:24.373Z,99571.53
2022-10-22T23:38:26.264Z,99567.16
2022-10-22T23:41:28.072Z,99564.50
2022-10-22T23:44:29.906Z,99567.88
2022-10-22T23:47:31.754Z,99557.47
2022-10-22T23:50:36.618Z,99559.31
2022-10-22T23:53:39.432Z,99555.25
2022-10-22T23:56:41.564Z,99556.25
2022-10-22T23:59:43.364Z,99545.25
